createdAt,value
2017-08-31T00:02:16.681Z,63.28
2017-08-31T00:03:19.921Z,63.18
2017-08-31T00:05:39.971Z,63.08
2017-08-31T00:06:12.179Z,62.89
2017-08-31T00:08:06.753Z,63.18
2017-08-31T00:09:07.197Z,62.79
2017-08-31T00:11:07.551Z,62.98
2017-08-31T00:13:17.035Z,63.08
2017-08-31T00:14:17.482Z,63.37
2017-08-31T00:15:17.924Z,63.08
2017-08-31T00:19:24.577Z,63.56
2017-08-31T00:20:25.056Z,63.47
2017-08-31T00:25:42.045Z,63.56
2017-08-31T00:26:28.207Z,63.34
2017-08-31T00:28:22.787Z,63.05
2017-08-31T00:29:23.237Z,62.95
2017-08-31T00:31:17.818Z,63.05
2017-08-31T00:32:18.263Z,63.53
2017-08-31T00:34:12.841Z,63.53
2017-08-31T00:35:13.289Z,63.24
2017-08-31T00:37:07.863Z,63.63
2017-08-31T00:38:08.325Z,63.73
2017-08-31T00:40:02.881Z,63.92
2017-08-31T00:41:03.329Z,63.82
2017-08-31T00:42:57.901Z,64.31
2017-08-31T00:43:58.359Z,64.31
2017-08-31T00:45:52.931Z,64.11
2017-08-31T00:46:53.371Z,64.01
2017-08-31T00:48:47.953Z,64.01
2017-08-31T00:49:48.403Z,64.40
2017-08-31T00:51:43.963Z,64.31
2017-08-31T00:52:44.407Z,64.11
2017-08-31T00:54:38.991Z,64.69
2017-08-31T00:55:39.437Z,64.69
2017-08-31T00:57:34.031Z,64.79
2017-08-31T00:58:34.462Z,64.69
2017-08-31T01:00:29.050Z,64.40
2017-08-31T01:01:29.495Z,64.40
2017-08-31T01:02:29.933Z,64.40
2017-08-31T01:03:30.374Z,64.69
2017-08-31T01:04:30.818Z,65.27
2017-08-31T01:05:31.266Z,65.17
2017-08-31T01:06:31.700Z,65.37
2017-08-31T01:07:32.145Z,64.98
2017-08-31T01:08:32.597Z,64.31
2017-08-31T01:09:33.034Z,64.40
2017-08-31T01:10:33.479Z,64.59
2017-08-31T01:11:33.914Z,64.59
2017-08-31T01:12:34.367Z,64.21
2017-08-31T01:13:34.806Z,64.31
2017-08-31T01:14:35.255Z,64.50
2017-08-31T01:16:11.799Z,64.40
2017-08-31T01:16:36.134Z,64.01
2017-08-31T01:17:36.574Z,64.40
2017-08-31T01:18:37.015Z,64.31
2017-08-31T01:19:37.458Z,64.11
2017-08-31T01:20:37.897Z,64.14
2017-08-31T01:21:38.339Z,64.31
2017-08-31T01:22:38.794Z,64.14
2017-08-31T01:23:39.230Z,64.24
2017-08-31T01:24:39.686Z,64.24
2017-08-31T01:25:40.118Z,64.34
2017-08-31T01:26:40.561Z,64.05
2017-08-31T01:27:40.999Z,64.34
2017-08-31T01:28:41.446Z,64.05
2017-08-31T01:29:41.895Z,64.05
2017-08-31T01:30:42.337Z,64.24
2017-08-31T01:31:42.771Z,64.14
2017-08-31T01:32:43.223Z,64.24
2017-08-31T01:33:43.660Z,64.34
2017-08-31T01:34:44.101Z,64.43
2017-08-31T01:36:20.391Z,64.14
2017-08-31T01:36:44.988Z,65.01
2017-08-31T01:37:45.430Z,64.72
2017-08-31T01:38:45.875Z,64.63
2017-08-31T01:39:46.314Z,64.34
2017-08-31T01:40:46.758Z,65.20
2017-08-31T01:41:47.215Z,65.20
2017-08-31T01:42:47.655Z,65.78
2017-08-31T01:43:48.087Z,65.59
2017-08-31T01:44:48.533Z,65.11
2017-08-31T01:45:48.976Z,65.01
2017-08-31T01:46:49.419Z,65.01
2017-08-31T01:47:49.862Z,65.30
2017-08-31T01:48:50.305Z,65.30
2017-08-31T01:49:50.749Z,65.50
2017-08-31T01:50:51.194Z,65.20
2017-08-31T01:51:51.641Z,65.50
2017-08-31T01:52:52.077Z,65.40
2017-08-31T01:53:52.523Z,65.11
2017-08-31T01:54:52.978Z,65.30
2017-08-31T01:55:53.412Z,65.30
2017-08-31T01:56:53.856Z,65.59
2017-08-31T01:57:54.297Z,66.08
2017-08-31T01:58:54.745Z,65.59
2017-08-31T01:59:55.183Z,66.08
2017-08-31T02:00:55.632Z,66.17
2017-08-31T02:01:56.071Z,66.17
2017-08-31T02:02:56.515Z,65.98
2017-08-31T02:03:56.949Z,65.78
2017-08-31T02:04:57.402Z,65.78
2017-08-31T02:05:57.839Z,66.27
2017-08-31T02:06:58.302Z,66.56
2017-08-31T02:07:58.730Z,66.66
2017-08-31T02:08:59.176Z,66.27
2017-08-31T02:09:59.618Z,66.17
2017-08-31T02:11:00.056Z,66.75
2017-08-31T02:12:00.498Z,65.98
2017-08-31T02:13:00.946Z,66.94
2017-08-31T02:14:01.387Z,66.75
2017-08-31T02:15:01.842Z,67.33
2017-08-31T02:16:02.275Z,66.85
2017-08-31T02:17:02.716Z,67.14
2017-08-31T02:18:03.172Z,67.72
2017-08-31T02:19:03.606Z,67.24
2017-08-31T02:20:04.052Z,67.33
2017-08-31T02:21:04.496Z,67.72
2017-08-31T02:22:04.938Z,68.10
2017-08-31T02:23:05.380Z,68.01
2017-08-31T02:24:05.824Z,68.59
2017-08-31T02:25:12.839Z,68.78
2017-08-31T02:26:06.709Z,68.40
2017-08-31T02:27:07.157Z,68.88
2017-08-31T02:28:07.599Z,69.07
2017-08-31T02:29:08.041Z,69.36
2017-08-31T02:30:08.483Z,69.17
2017-08-31T02:31:08.925Z,68.88
2017-08-31T02:32:09.374Z,69.36
2017-08-31T02:33:09.808Z,69.26
2017-08-31T02:34:10.253Z,69.26
2017-08-31T02:35:10.697Z,69.65
2017-08-31T02:36:11.138Z,69.56
2017-08-31T02:37:11.586Z,69.46
2017-08-31T02:38:12.032Z,70.14
2017-08-31T02:39:12.473Z,69.94
2017-08-31T02:40:12.914Z,69.94
2017-08-31T02:41:13.356Z,69.84
2017-08-31T02:42:13.800Z,69.94
2017-08-31T02:43:14.244Z,70.23
2017-08-31T02:44:14.684Z,70.14
2017-08-31T02:45:15.129Z,70.32
2017-08-31T02:46:15.569Z,70.26
2017-08-31T02:47:16.011Z,70.07
2017-08-31T02:48:16.462Z,70.42
2017-08-31T02:49:16.898Z,70.14
2017-08-31T02:50:17.342Z,70.65
2017-08-31T02:51:17.792Z,70.62
2017-08-31T02:52:18.227Z,70.26
2017-08-31T02:53:18.667Z,70.75
2017-08-31T02:54:19.112Z,70.94
2017-08-31T02:55:19.552Z,70.94
2017-08-31T02:56:19.996Z,70.72
2017-08-31T02:57:20.437Z,70.32
2017-08-31T02:58:20.882Z,70.65
2017-08-31T02:59:21.329Z,71.23
2017-08-31T03:00:21.777Z,70.84
2017-08-31T03:01:22.211Z,71.20
2017-08-31T03:02:22.652Z,71.23
2017-08-31T03:03:23.095Z,71.04
2017-08-31T03:04:23.539Z,71.23
2017-08-31T03:05:23.982Z,72.97
2017-08-31T03:06:24.427Z,72.20
2017-08-31T03:07:24.872Z,71.04
2017-08-31T03:08:25.310Z,71.81
2017-08-31T03:09:25.755Z,72.00
2017-08-31T03:10:26.204Z,72.55
2017-08-31T03:11:26.641Z,71.91
2017-08-31T03:12:27.081Z,72.45
2017-08-31T03:13:27.529Z,72.26
2017-08-31T03:14:27.974Z,73.03
2017-08-31T03:15:28.415Z,72.55
2017-08-31T03:16:28.863Z,72.64
2017-08-31T03:17:29.318Z,73.32
2017-08-31T03:18:29.740Z,72.97
2017-08-31T03:19:30.183Z,73.03
2017-08-31T03:20:30.627Z,72.84
2017-08-31T03:21:31.070Z,73.22
2017-08-31T03:22:31.515Z,73.61
2017-08-31T03:23:31.954Z,73.52
2017-08-31T03:24:32.396Z,73.71
2017-08-31T03:25:32.860Z,73.52
2017-08-31T03:26:33.282Z,73.52
2017-08-31T03:27:33.729Z,74.29
2017-08-31T03:28:34.169Z,74.00
2017-08-31T03:29:34.614Z,74.38
2017-08-31T03:30:35.057Z,74.58
2017-08-31T03:31:35.502Z,74.19
2017-08-31T03:32:35.938Z,74.29
2017-08-31T03:33:36.382Z,74.29
2017-08-31T03:34:36.825Z,74.58
2017-08-31T03:35:37.267Z,74.68
2017-08-31T03:36:37.708Z,75.06
2017-08-31T03:37:38.152Z,75.06
2017-08-31T03:38:38.595Z,75.26
2017-08-31T03:39:39.040Z,74.87
2017-08-31T03:40:39.483Z,75.54
2017-08-31T03:41:39.929Z,75.64
2017-08-31T03:42:40.367Z,76.03
2017-08-31T03:43:40.811Z,76.12
2017-08-31T03:44:41.275Z,76.90
2017-08-31T03:45:41.697Z,76.80
2017-08-31T03:46:42.148Z,76.70
2017-08-31T03:47:42.581Z,76.80
2017-08-31T03:48:43.024Z,76.90
2017-08-31T03:49:43.470Z,77.28
2017-08-31T03:50:43.912Z,77.09
2017-08-31T03:51:44.356Z,77.38
2017-08-31T03:52:44.797Z,77.38
2017-08-31T03:53:45.235Z,77.96
2017-08-31T03:54:45.683Z,77.96
2017-08-31T03:55:46.120Z,78.54
2017-08-31T03:56:46.571Z,78.06
2017-08-31T03:57:47.010Z,78.44
2017-08-31T03:58:47.452Z,78.73
2017-08-31T03:59:47.894Z,78.92
2017-08-31T04:00:48.340Z,78.73
2017-08-31T04:01:48.788Z,79.02
2017-08-31T04:02:49.224Z,79.02
2017-08-31T04:03:49.661Z,79.41
2017-08-31T04:04:50.107Z,79.89
2017-08-31T04:05:50.547Z,79.31
2017-08-31T04:06:50.994Z,79.70
2017-08-31T04:07:51.434Z,80.18
2017-08-31T04:08:51.872Z,80.47
2017-08-31T04:09:52.315Z,80.76
2017-08-31T04:10:52.760Z,80.47
2017-08-31T04:11:53.200Z,80.82
2017-08-31T04:12:53.646Z,81.01
2017-08-31T04:13:54.092Z,81.20
2017-08-31T04:14:54.542Z,81.11
2017-08-31T04:15:54.981Z,81.30
2017-08-31T04:16:55.421Z,81.30
2017-08-31T04:17:55.864Z,81.59
2017-08-31T04:18:56.312Z,81.78
2017-08-31T04:19:56.745Z,81.30
2017-08-31T04:20:57.189Z,81.34
2017-08-31T04:21:57.631Z,81.30
2017-08-31T04:22:58.072Z,82.17
2017-08-31T04:23:58.514Z,81.98
2017-08-31T04:24:58.957Z,81.68
2017-08-31T04:25:59.402Z,81.68
2017-08-31T04:26:59.863Z,82.02
2017-08-31T04:28:00.283Z,82.07
2017-08-31T04:29:00.726Z,82.17
2017-08-31T04:30:01.171Z,82.17
2017-08-31T04:31:01.611Z,82.36
2017-08-31T04:32:02.065Z,82.36
2017-08-31T04:33:02.505Z,82.07
2017-08-31T04:34:02.941Z,82.84
2017-08-31T04:35:03.384Z,82.26
2017-08-31T04:36:03.833Z,82.75
2017-08-31T04:37:04.275Z,82.36
2017-08-31T04:38:04.717Z,82.69
2017-08-31T04:39:05.156Z,82.31
2017-08-31T04:40:05.602Z,82.26
2017-08-31T04:41:06.047Z,82.84
2017-08-31T04:42:06.483Z,83.04
2017-08-31T04:43:06.928Z,82.84
2017-08-31T04:44:07.369Z,82.94
2017-08-31T04:45:07.817Z,83.14
2017-08-31T04:46:08.259Z,83.14
2017-08-31T04:47:08.698Z,82.79
2017-08-31T04:48:09.143Z,82.75
2017-08-31T04:49:09.597Z,82.75
2017-08-31T04:50:10.029Z,82.60
2017-08-31T04:51:10.470Z,82.89
2017-08-31T04:52:10.914Z,82.98
2017-08-31T04:53:11.355Z,82.50
2017-08-31T04:54:11.796Z,82.98
2017-08-31T04:55:12.247Z,82.89
2017-08-31T04:56:12.682Z,83.23
2017-08-31T04:57:13.134Z,82.98
2017-08-31T04:58:13.578Z,83.37
2017-08-31T04:59:14.034Z,83.23
2017-08-31T05:00:14.458Z,83.18
2017-08-31T05:01:14.901Z,83.23
2017-08-31T05:02:15.342Z,83.33
2017-08-31T05:03:15.782Z,83.52
2017-08-31T05:04:16.227Z,83.72
2017-08-31T05:05:16.672Z,83.23
2017-08-31T05:06:17.114Z,83.23
2017-08-31T05:07:17.562Z,83.62
2017-08-31T05:08:18.004Z,83.04
2017-08-31T05:09:18.445Z,83.42
2017-08-31T05:10:18.889Z,83.14
2017-08-31T05:11:19.330Z,83.23
2017-08-31T05:12:19.774Z,83.66
2017-08-31T05:13:20.219Z,83.62
2017-08-31T05:14:20.666Z,83.72
2017-08-31T05:15:21.100Z,83.27
2017-08-31T05:16:21.548Z,83.33
2017-08-31T05:17:21.986Z,83.33
2017-08-31T05:18:22.436Z,83.33
2017-08-31T05:19:22.876Z,83.27
2017-08-31T05:20:23.321Z,83.33
2017-08-31T05:21:23.758Z,83.08
2017-08-31T05:22:24.209Z,83.14
2017-08-31T05:23:24.645Z,83.18
2017-08-31T05:24:25.090Z,83.56
2017-08-31T05:25:25.536Z,83.47
2017-08-31T05:26:25.980Z,83.56
2017-08-31T05:27:26.422Z,83.27
2017-08-31T05:28:26.867Z,83.33
2017-08-31T05:29:27.306Z,83.56
2017-08-31T05:30:27.760Z,83.37
2017-08-31T05:31:28.213Z,83.47
2017-08-31T05:32:28.638Z,83.47
2017-08-31T05:33:29.088Z,82.89
2017-08-31T05:34:29.522Z,83.08
2017-08-31T05:35:29.970Z,83.42
2017-08-31T05:36:30.413Z,83.27
2017-08-31T05:37:30.883Z,83.27
2017-08-31T05:38:31.299Z,83.56
2017-08-31T05:39:31.744Z,83.37
2017-08-31T05:40:32.186Z,83.08
2017-08-31T05:41:32.624Z,82.98
2017-08-31T05:42:33.069Z,83.18
2017-08-31T05:43:33.518Z,83.18
2017-08-31T05:44:33.959Z,83.27
2017-08-31T05:45:34.403Z,82.65
2017-08-31T05:46:34.844Z,82.60
2017-08-31T05:47:35.286Z,82.40
2017-08-31T05:48:35.730Z,82.40
2017-08-31T05:49:36.174Z,83.18
2017-08-31T05:50:36.614Z,82.79
2017-08-31T05:51:37.062Z,82.50
2017-08-31T05:52:37.508Z,83.18
2017-08-31T05:53:37.953Z,82.60
2017-08-31T05:54:38.389Z,83.08
2017-08-31T05:55:38.834Z,83.08
2017-08-31T05:56:39.275Z,82.40
2017-08-31T05:57:39.721Z,82.69
2017-08-31T05:58:40.164Z,83.18
2017-08-31T05:59:40.609Z,82.60
2017-08-31T06:00:41.054Z,83.18
2017-08-31T06:01:41.526Z,82.69
2017-08-31T06:02:41.944Z,83.27
2017-08-31T06:03:42.383Z,83.37
2017-08-31T06:04:42.828Z,83.18
2017-08-31T06:05:43.267Z,83.70
2017-08-31T06:06:43.714Z,83.31
2017-08-31T06:07:44.169Z,83.31
2017-08-31T06:08:44.610Z,82.93
2017-08-31T06:09:45.047Z,83.27
2017-08-31T06:10:45.489Z,83.41
2017-08-31T06:11:45.934Z,83.31
2017-08-31T06:12:46.381Z,83.70
2017-08-31T06:13:46.829Z,83.31
2017-08-31T06:14:47.265Z,83.22
2017-08-31T06:15:47.709Z,83.41
2017-08-31T06:16:48.151Z,83.12
2017-08-31T06:17:48.598Z,83.22
2017-08-31T06:18:49.047Z,83.12
2017-08-31T06:19:49.486Z,83.31
2017-08-31T06:20:49.929Z,83.22
2017-08-31T06:21:50.386Z,83.22
2017-08-31T06:22:50.876Z,83.55
2017-08-31T06:23:51.268Z,83.36
2017-08-31T06:24:51.710Z,83.26
2017-08-31T06:25:52.148Z,83.94
2017-08-31T06:26:52.596Z,82.87
2017-08-31T06:27:53.042Z,83.84
2017-08-31T06:28:53.487Z,83.84
2017-08-31T06:29:53.934Z,83.74
2017-08-31T06:30:54.371Z,83.55
2017-08-31T06:31:54.818Z,83.64
2017-08-31T06:32:55.263Z,83.45
2017-08-31T06:33:55.712Z,84.03
2017-08-31T06:34:56.162Z,83.74
2017-08-31T06:35:56.609Z,84.03
2017-08-31T06:36:57.051Z,83.59
2017-08-31T06:37:57.488Z,83.84
2017-08-31T06:38:57.949Z,83.84
2017-08-31T06:39:58.378Z,83.74
2017-08-31T06:40:58.845Z,83.88
2017-08-31T06:41:59.274Z,83.64
2017-08-31T06:42:59.712Z,83.26
2017-08-31T06:44:00.160Z,83.74
2017-08-31T06:45:00.607Z,83.74
2017-08-31T06:46:01.049Z,83.94
2017-08-31T06:47:01.506Z,83.45
2017-08-31T06:48:01.940Z,83.69
2017-08-31T06:49:02.394Z,84.56
2017-08-31T06:50:02.830Z,83.59
2017-08-31T06:51:03.274Z,83.69
2017-08-31T06:52:03.717Z,83.49
2017-08-31T06:53:04.162Z,83.64
2017-08-31T06:54:04.611Z,84.56
2017-08-31T06:55:05.057Z,84.36
2017-08-31T06:56:05.499Z,84.36
2017-08-31T06:57:05.955Z,83.88
2017-08-31T06:58:06.389Z,84.46
2017-08-31T06:59:06.834Z,84.50
2017-08-31T07:00:07.284Z,84.46
2017-08-31T07:01:07.726Z,84.27
2017-08-31T07:02:08.173Z,84.66
2017-08-31T07:03:08.671Z,84.50
2017-08-31T07:04:09.062Z,83.83
2017-08-31T07:05:09.509Z,84.79
2017-08-31T07:06:09.954Z,83.83
2017-08-31T07:07:10.419Z,84.27
2017-08-31T07:08:10.848Z,84.69
2017-08-31T07:09:11.301Z,84.11
2017-08-31T07:10:11.770Z,84.31
2017-08-31T07:11:12.191Z,84.60
2017-08-31T07:12:12.628Z,83.30
2017-08-31T07:13:13.114Z,84.46
2017-08-31T07:14:13.529Z,84.41
2017-08-31T07:15:13.971Z,84.50
2017-08-31T07:16:14.462Z,83.73
2017-08-31T07:17:14.861Z,84.50
2017-08-31T07:18:15.309Z,84.50
2017-08-31T07:19:15.761Z,84.60
2017-08-31T07:20:16.198Z,83.96
2017-08-31T07:21:16.670Z,84.60
2017-08-31T07:22:17.099Z,84.06
2017-08-31T07:23:17.543Z,84.35
2017-08-31T07:24:17.992Z,84.20
2017-08-31T07:25:18.431Z,84.39
2017-08-31T07:26:18.882Z,84.39
2017-08-31T07:27:19.331Z,84.10
2017-08-31T07:28:19.776Z,84.00
2017-08-31T07:29:20.229Z,84.25
2017-08-31T07:30:20.671Z,84.00
2017-08-31T07:31:21.131Z,83.81
2017-08-31T07:32:21.574Z,83.75
2017-08-31T07:33:22.013Z,83.47
2017-08-31T07:34:22.459Z,83.56
2017-08-31T07:35:22.909Z,84.10
2017-08-31T07:36:23.359Z,84.45
2017-08-31T07:37:23.804Z,84.58
2017-08-31T07:38:24.253Z,83.65
2017-08-31T07:39:24.701Z,84.05
2017-08-31T07:40:25.152Z,83.56
2017-08-31T07:41:25.597Z,83.75
2017-08-31T07:42:26.053Z,83.80
2017-08-31T07:43:26.499Z,82.82
2017-08-31T07:44:26.957Z,83.85
2017-08-31T07:45:27.392Z,83.95
2017-08-31T07:46:27.845Z,83.31
2017-08-31T07:47:28.300Z,82.67
2017-08-31T07:48:28.767Z,82.87
2017-08-31T07:49:44.024Z,81.74
2017-08-31T07:50:29.650Z,82.13
2017-08-31T07:51:30.105Z,81.49
2017-08-31T07:52:30.558Z,80.76
2017-08-31T07:53:31.009Z,79.86
2017-08-31T07:54:31.460Z,78.44
2017-08-31T07:55:31.915Z,76.63
2017-08-31T07:56:32.370Z,75.30
2017-08-31T07:57:32.834Z,75.46
2017-08-31T07:58:33.306Z,77.33
2017-08-31T07:59:33.743Z,77.11
2017-08-31T08:00:34.204Z,77.14
2017-08-31T08:01:34.659Z,77.15
2017-08-31T08:02:35.118Z,75.16
2017-08-31T08:03:35.590Z,76.63
2017-08-31T08:04:36.035Z,76.20
2017-08-31T08:05:36.494Z,74.23
2017-08-31T08:06:36.952Z,73.33
2017-08-31T08:07:37.416Z,70.86
2017-08-31T08:08:37.873Z,68.81
2017-08-31T08:09:38.341Z,67.54
2017-08-31T08:10:38.800Z,68.91
2017-08-31T08:11:39.254Z,67.38
2017-08-31T08:12:39.715Z,68.29
2017-08-31T08:13:40.183Z,71.83
2017-08-31T08:14:40.646Z,71.67
2017-08-31T08:15:41.100Z,70.40
2017-08-31T08:16:41.565Z,68.75
2017-08-31T08:17:42.026Z,64.94
2017-08-31T08:18:42.486Z,63.01
2017-08-31T08:19:42.967Z,64.67
2017-08-31T08:20:43.415Z,62.59
2017-08-31T08:21:43.877Z,60.26
2017-08-31T08:22:44.344Z,57.97
2017-08-31T08:23:44.849Z,61.02
2017-08-31T08:24:45.278Z,61.77
2017-08-31T08:25:45.733Z,58.11
2017-08-31T08:26:46.201Z,59.50
2017-08-31T08:27:46.664Z,57.81
2017-08-31T08:28:47.125Z,54.78
2017-08-31T08:29:47.596Z,52.72
2017-08-31T08:30:48.062Z,52.42
2017-08-31T08:31:48.530Z,55.82
2017-08-31T08:32:48.991Z,54.66
2017-08-31T08:33:49.461Z,51.50
2017-08-31T08:34:49.931Z,50.29
2017-08-31T08:35:50.402Z,52.20
2017-08-31T08:36:50.862Z,52.55
2017-08-31T08:37:51.337Z,50.93
2017-08-31T08:38:51.788Z,53.43
2017-08-31T08:39:52.273Z,57.32
2017-08-31T08:40:52.754Z,56.97
2017-08-31T08:41:53.191Z,53.75
2017-08-31T08:42:53.663Z,51.89
2017-08-31T08:43:54.133Z,51.32
2017-08-31T08:44:54.603Z,51.07
2017-08-31T08:45:55.060Z,49.43
2017-08-31T08:46:55.530Z,48.20
2017-08-31T08:47:56.028Z,47.26
2017-08-31T08:48:56.483Z,47.09
2017-08-31T08:49:56.936Z,46.30
2017-08-31T08:50:57.407Z,44.65
2017-08-31T08:51:57.869Z,43.41
2017-08-31T08:52:58.409Z,42.91
2017-08-31T08:53:58.795Z,43.05
2017-08-31T08:54:59.272Z,41.95
2017-08-31T08:55:59.736Z,43.03
2017-08-31T08:57:00.206Z,41.99
2017-08-31T08:58:00.683Z,41.81
2017-08-31T08:59:01.145Z,40.48
2017-08-31T09:00:01.610Z,41.53
2017-08-31T09:01:02.084Z,42.79
2017-08-31T09:02:02.567Z,43.33
2017-08-31T09:03:03.017Z,44.25
2017-08-31T09:04:03.495Z,43.13
2017-08-31T09:05:03.957Z,41.87
2017-08-31T09:06:04.428Z,41.83
2017-08-31T09:07:04.890Z,42.13
2017-08-31T09:08:05.362Z,42.24
2017-08-31T09:09:05.830Z,45.24
2017-08-31T09:10:06.301Z,43.93
2017-08-31T09:11:06.768Z,50.95
2017-08-31T09:12:07.238Z,49.73
2017-08-31T09:13:07.707Z,48.45
2017-08-31T09:14:08.179Z,49.97
2017-08-31T09:15:08.644Z,50.27
2017-08-31T09:16:09.117Z,49.21
2017-08-31T09:17:09.580Z,49.04
2017-08-31T09:18:10.046Z,46.94
2017-08-31T09:19:10.521Z,45.21
2017-08-31T09:20:10.980Z,45.74
2017-08-31T09:21:11.452Z,45.76
2017-08-31T09:22:11.918Z,47.22
2017-08-31T09:23:12.394Z,50.44
2017-08-31T09:24:12.858Z,54.30
2017-08-31T09:25:13.321Z,56.50
2017-08-31T09:26:13.790Z,53.06
2017-08-31T09:27:14.256Z,52.72
2017-08-31T09:28:14.723Z,53.03
2017-08-31T09:29:15.207Z,49.51
2017-08-31T09:30:15.658Z,48.65
2017-08-31T09:31:16.127Z,49.77
2017-08-31T09:32:16.591Z,48.82
2017-08-31T09:33:17.056Z,48.18
2017-08-31T09:34:17.522Z,49.65
2017-08-31T09:35:17.992Z,48.59
2017-08-31T09:36:18.461Z,46.20
2017-08-31T09:37:18.925Z,45.74
2017-08-31T09:38:19.392Z,47.41
2017-08-31T09:39:19.864Z,46.03
2017-08-31T09:40:20.326Z,45.47
2017-08-31T09:41:20.797Z,45.48
2017-08-31T09:42:21.264Z,47.07
2017-08-31T09:43:21.731Z,47.96
2017-08-31T09:44:22.198Z,45.42
2017-08-31T09:45:22.671Z,46.19
2017-08-31T09:46:23.137Z,47.03
2017-08-31T09:47:23.607Z,48.94
2017-08-31T09:48:24.068Z,55.40
2017-08-31T09:49:24.529Z,56.96
2017-08-31T09:50:24.997Z,55.69
2017-08-31T09:51:25.475Z,53.91
2017-08-31T09:52:25.925Z,52.83
2017-08-31T09:53:26.532Z,53.23
2017-08-31T09:54:26.841Z,54.67
2017-08-31T09:56:03.132Z,58.87
2017-08-31T09:59:34.068Z,64.75
2017-08-31T10:02:17.626Z,62.93
2017-08-31T10:02:52.102Z,62.66
2017-08-31T10:04:58.191Z,65.04
2017-08-31T10:06:58.730Z,62.66
2017-08-31T10:09:13.517Z,63.15
2017-08-31T10:10:13.964Z,64.20
2017-08-31T10:12:08.567Z,64.13
2017-08-31T10:13:09.034Z,63.74
2017-08-31T10:15:03.616Z,64.84
2017-08-31T10:16:04.080Z,65.36
2017-08-31T10:17:58.683Z,67.25
2017-08-31T10:18:59.134Z,66.11
2017-08-31T10:20:53.756Z,68.90
2017-08-31T10:21:54.212Z,70.07
2017-08-31T10:23:48.812Z,67.96
2017-08-31T10:24:49.266Z,67.83
2017-08-31T10:26:43.865Z,68.35
2017-08-31T10:27:44.324Z,68.06
2017-08-31T10:29:38.953Z,70.20
2017-08-31T10:30:39.387Z,71.36
2017-08-31T10:32:34.949Z,72.49
2017-08-31T10:33:35.414Z,71.94
2017-08-31T10:35:30.028Z,70.72
2017-08-31T10:36:30.468Z,70.52
2017-08-31T10:40:00.176Z,70.72
2017-08-31T10:42:18.181Z,69.68
2017-08-31T10:43:15.391Z,67.93
2017-08-31T10:45:18.769Z,67.08
2017-08-31T10:47:44.553Z,68.38
2017-08-31T10:48:45.003Z,67.25
2017-08-31T10:50:39.600Z,68.22
2017-08-31T10:51:40.057Z,66.93
2017-08-31T10:53:35.642Z,68.67
2017-08-31T10:54:36.106Z,68.09
2017-08-31T10:58:04.805Z,69.96
2017-08-31T10:59:05.261Z,69.42
2017-08-31T11:00:59.871Z,70.51
2017-08-31T11:02:00.321Z,69.09
2017-08-31T11:03:54.913Z,69.38
2017-08-31T11:04:55.371Z,67.93
2017-08-31T11:06:49.968Z,66.50
2017-08-31T11:07:50.425Z,67.05
2017-08-31T11:08:50.876Z,67.54
2017-08-31T11:09:51.327Z,65.33
2017-08-31T11:10:58.734Z,64.95
2017-08-31T11:11:52.231Z,64.29
2017-08-31T11:12:52.692Z,63.19
2017-08-31T11:13:53.140Z,62.90
2017-08-31T11:14:53.588Z,65.72
2017-08-31T11:15:54.055Z,66.27
2017-08-31T11:16:54.495Z,66.31
2017-08-31T11:17:54.946Z,64.98
2017-08-31T11:18:55.400Z,64.62
2017-08-31T11:19:55.852Z,63.02
2017-08-31T11:20:56.321Z,62.15
2017-08-31T11:21:56.763Z,61.21
2017-08-31T11:22:57.214Z,61.57
2017-08-31T11:23:57.673Z,61.21
2017-08-31T11:24:58.122Z,61.01
2017-08-31T11:26:01.238Z,60.10
2017-08-31T11:27:59.597Z,57.25
2017-08-31T11:29:00.173Z,54.47
2017-08-31T11:30:07.320Z,53.81
2017-08-31T11:31:01.004Z,54.67
2017-08-31T11:32:01.450Z,52.50
2017-08-31T11:34:35.053Z,49.80
2017-08-31T11:35:35.535Z,52.81
2017-08-31T11:37:30.186Z,55.44
2017-08-31T11:38:30.507Z,57.00
2017-08-31T11:40:26.114Z,57.00
2017-08-31T11:41:26.579Z,56.77
2017-08-31T11:43:21.190Z,55.00
2017-08-31T11:44:21.655Z,54.03
2017-08-31T11:46:16.277Z,54.39
2017-08-31T11:47:16.737Z,56.00
2017-08-31T11:49:12.335Z,57.73
2017-08-31T11:50:12.800Z,58.50
2017-08-31T11:52:07.400Z,58.18
2017-08-31T11:53:07.866Z,58.40
2017-08-31T11:55:02.487Z,58.97
2017-08-31T11:56:02.933Z,58.58
2017-08-31T11:57:58.519Z,59.64
2017-08-31T11:58:58.977Z,59.42
2017-08-31T12:00:54.565Z,60.49
2017-08-31T12:01:55.025Z,60.66
2017-08-31T12:03:50.604Z,61.99
2017-08-31T12:04:51.055Z,60.46
2017-08-31T12:06:46.679Z,61.70
2017-08-31T12:07:47.117Z,61.21
2017-08-31T12:09:41.688Z,62.02
2017-08-31T12:10:42.156Z,62.51
2017-08-31T12:12:36.746Z,63.32
2017-08-31T12:13:37.187Z,63.23
2017-08-31T12:15:31.780Z,62.38
2017-08-31T12:16:32.255Z,63.16
2017-08-31T12:18:39.097Z,61.54
2017-08-31T12:20:42.666Z,62.19
2017-08-31T12:22:58.424Z,61.54
2017-08-31T12:23:58.881Z,61.34
2017-08-31T12:25:57.730Z,59.72
2017-08-31T12:28:09.239Z,59.62
2017-08-31T12:29:09.691Z,59.98
2017-08-31T12:31:04.291Z,59.39
2017-08-31T12:32:04.747Z,60.14
2017-08-31T12:33:59.350Z,60.53
2017-08-31T12:34:59.804Z,61.24
2017-08-31T12:36:54.432Z,59.98
2017-08-31T12:37:54.889Z,59.69
2017-08-31T12:39:50.464Z,60.08
2017-08-31T12:40:50.921Z,58.81
2017-08-31T12:42:46.525Z,59.10
2017-08-31T12:43:46.967Z,59.49
2017-08-31T12:45:42.530Z,61.41
2017-08-31T12:46:42.991Z,62.06
2017-08-31T12:48:37.639Z,61.90
2017-08-31T12:49:38.095Z,61.44
2017-08-31T12:50:38.552Z,60.36
2017-08-31T12:51:39.002Z,60.08
2017-08-31T12:52:39.460Z,59.69
2017-08-31T12:53:39.897Z,60.72
2017-08-31T12:54:40.340Z,60.63
2017-08-31T12:55:40.797Z,60.44
2017-08-31T12:56:41.257Z,60.60
2017-08-31T12:57:41.703Z,61.38
2017-08-31T12:58:42.156Z,61.87
2017-08-31T12:59:42.605Z,63.39
2017-08-31T13:00:43.043Z,66.34
2017-08-31T13:01:43.512Z,71.03
2017-08-31T13:02:43.958Z,73.77
2017-08-31T13:03:44.414Z,75.92
2017-08-31T13:04:44.858Z,76.95
2017-08-31T13:05:45.292Z,78.31
2017-08-31T13:07:06.907Z,78.41
2017-08-31T13:07:46.200Z,79.04
2017-08-31T13:08:46.663Z,79.82
2017-08-31T13:09:47.101Z,79.82
2017-08-31T13:10:47.537Z,80.59
2017-08-31T13:11:47.985Z,80.59
2017-08-31T13:12:48.506Z,80.94
2017-08-31T13:13:49.855Z,81.90
2017-08-31T13:14:49.360Z,81.90
2017-08-31T13:15:49.804Z,81.48
2017-08-31T13:16:50.260Z,82.00
2017-08-31T13:17:50.699Z,81.38
2017-08-31T13:18:51.160Z,81.96
2017-08-31T13:19:51.596Z,82.06
2017-08-31T13:20:52.037Z,82.50
2017-08-31T13:21:53.359Z,82.26
2017-08-31T13:22:52.935Z,82.56
2017-08-31T13:23:53.376Z,82.32
2017-08-31T13:24:53.819Z,82.71
2017-08-31T13:25:54.273Z,81.93
2017-08-31T13:26:54.711Z,82.32
2017-08-31T13:27:55.154Z,82.13
2017-08-31T13:28:55.597Z,82.13
2017-08-31T13:29:56.042Z,81.93
2017-08-31T13:30:57.365Z,80.83
2017-08-31T13:31:56.934Z,80.83
2017-08-31T13:32:57.372Z,79.00
2017-08-31T13:33:57.814Z,76.20
2017-08-31T13:34:58.258Z,73.43
2017-08-31T13:36:05.364Z,72.85
2017-08-31T13:36:59.138Z,71.79
2017-08-31T13:37:59.588Z,72.85
2017-08-31T13:39:00.032Z,73.53
2017-08-31T13:40:00.474Z,70.83
2017-08-31T13:41:00.911Z,69.29
2017-08-31T13:42:01.365Z,70.35
2017-08-31T13:43:01.787Z,68.23
2017-08-31T13:44:02.228Z,68.99
2017-08-31T13:46:47.537Z,67.07
2017-08-31T13:48:50.689Z,66.97
2017-08-31T13:49:51.090Z,68.23
2017-08-31T13:51:45.693Z,70.15
2017-08-31T13:52:46.139Z,69.77
2017-08-31T13:54:40.691Z,68.71
2017-08-31T13:55:41.140Z,69.57
2017-08-31T13:57:36.699Z,69.77
2017-08-31T13:58:37.137Z,69.77
2017-08-31T14:00:46.980Z,71.79
2017-08-31T14:04:30.398Z,74.49
2017-08-31T14:05:20.036Z,73.53
2017-08-31T14:07:14.612Z,70.92
2017-08-31T14:08:15.128Z,72.27
2017-08-31T14:10:09.616Z,72.85
2017-08-31T14:11:10.077Z,71.98
2017-08-31T14:13:04.646Z,73.33
2017-08-31T14:14:05.090Z,74.20
2017-08-31T14:15:59.681Z,72.47
2017-08-31T14:17:00.105Z,74.97
2017-08-31T14:18:00.562Z,74.40
2017-08-31T14:19:00.999Z,74.78
2017-08-31T14:20:01.457Z,76.90
2017-08-31T14:21:37.928Z,72.85
2017-08-31T14:22:23.495Z,76.80
2017-08-31T14:23:02.767Z,75.55
2017-08-31T14:24:03.219Z,75.93
2017-08-31T14:25:03.642Z,76.03
2017-08-31T14:26:04.087Z,77.00
2017-08-31T14:27:04.524Z,78.34
2017-08-31T14:28:04.966Z,77.67
2017-08-31T14:29:05.420Z,76.03
2017-08-31T14:30:05.865Z,76.13
2017-08-31T14:31:06.302Z,76.90